sensor_id;sensor_type;location;lat;lon;timestamp;pressure;altitude;pressure_sealevel;temperature;humidity
54850;BME280;47660;51.334;12.396;2023-02-12T00:00:49;102068.22;;;9.91;100.00
54850;BME280;47660;51.334;12.396;2023-02-12T00:03:17;102086.69;;;9.94;100.00
54850;BME280;47660;51.334;12.396;2023-02-12T00:05:43;102091.63;;;10.06;100.00
54850;BME280;47660;51.334;12.396;2023-02-12T00:08:11;102082.38;;;9.63;100.00
54850;BME280;47660;51.334;12.396;2023-02-12T00:10:43;102087.50;;;9.41;100.00
54850;BME280;47660;51.334;12.396;2023-02-12T00:13:11;102083.22;;;9.65;100.00
54850;BME280;47660;51.334;12.396;2023-02-12T00:15:41;102086.97;;;9.58;100.00
54850;BME280;47660;51.334;12.396;2023-02-12T00:18:07;102082.75;;;9.22;100.00
54850;BME280;47660;51.334;12.396;2023-02-12T00:20:32;102084.94;;;9.38;100.00
54850;BME280;47660;51.334;12.396;2023-02-12T00:23:00;102084.22;;;9.32;100.00
54850;BME280;47660;51.334;12.396;2023-02-12T00:25:26;102084.44;;;9.25;100.00
54850;BME280;47660;51.334;12.396;2023-02-12T00:27:51;102072.00;;;9.27;100.00
54850;BME280;47660;51.334;12.396;2023-02-12T00:30:17;102079.38;;;9.45;100.00
54850;BME280;47660;51.334;12.396;2023-02-12T00:32:45;102084.22;;;9.32;100.00
54850;BME280;47660;51.334;12.396;2023-02-12T00:35:13;102085.81;;;9.38;100.00
54850;BME280;47660;51.334;12.396;2023-02-12T00:37:41;102081.31;;;9.69;100.00
54850;BME280;47660;51.334;12.396;2023-02-12T00:40:07;102078.63;;;9.70;100.00
54850;BME280;47660;51.334;12.396;2023-02-12T00:42:32;102088.97;;;9.51;100.00
54850;BME280;47660;51.334;12.396;2023-02-12T00:44:58;102092.16;;;9.62;100.00
54850;BME280;47660;51.334;12.396;2023-02-12T00:47:23;102093.94;;;9.62;100.00
54850;BME280;47660;51.334;12.396;2023-02-12T00:49:49;102088.34;;;9.71;100.00
54850;BME280;47660;51.334;12.396;2023-02-12T00:52:15;102085.56;;;9.16;100.00
54850;BME280;47660;51.334;12.396;2023-02-12T00:54:40;102090.31;;;9.36;100.00
54850;BME280;47660;51.334;12.396;2023-02-12T00:57:05;102100.72;;;9.71;100.00
54850;BME280;47660;51.334;12.396;2023-02-12T00:59:31;102102.34;;;9.46;100.00
54850;BME280;47660;51.334;12.396;2023-02-12T01:01:59;102103.25;;;9.47;100.00
54850;BME280;47660;51.334;12.396;2023-02-12T01:04:24;102102.84;;;9.31;100.00
54850;BME280;47660;51.334;12.396;2023-02-12T01:06:52;102102.66;;;9.65;100.00
54850;BME280;47660;51.334;12.396;2023-02-12T01:09:17;102098.84;;;9.74;100.00
54850;BME280;47660;51.334;12.396;2023-02-12T01:11:43;102108.91;;;9.34;100.00
54850;BME280;47660;51.334;12.396;2023-02-12T01:14:08;102106.38;;;9.60;100.00
54850;BME280;47660;51.334;12.396;2023-02-12T01:16:34;102109.03;;;9.88;100.00
54850;BME280;47660;51.334;12.396;2023-02-12T01:19:03;102107.09;;;9.65;100.00
54850;BME280;47660;51.334;12.396;2023-02-12T01:21:31;102102.06;;;9.84;100.00
54850;BME280;47660;51.334;12.396;2023-02-12T01:23:57;102100.31;;;10.11;100.00
54850;BME280;47660;51.334;12.396;2023-02-12T01:26:23;102101.41;;;9.49;100.00
54850;BME280;47660;51.334;12.396;2023-02-12T01:28:52;102105.28;;;9.67;100.00
54850;BME280;47660;51.334;12.396;2023-02-12T01:31:24;102108.16;;;9.88;100.00
54850;BME280;47660;51.334;12.396;2023-02-12T01:33:52;102110.03;;;9.56;100.00
54850;BME280;47660;51.334;12.396;2023-02-12T01:36:17;102107.13;;;9.63;100.00
54850;BME280;47660;51.334;12.396;2023-02-12T01:38:43;102110.03;;;9.56;100.00
54850;BME280;47660;51.334;12.396;2023-02-12T01:41:13;102110.84;;;9.59;100.00
54850;BME280;47660;51.334;12.396;2023-02-12T01:43:39;102106.75;;;9.47;100.00
54850;BME280;47660;51.334;12.396;2023-02-12T01:46:07;102106.28;;;9.91;100.00
54850;BME280;47660;51.334;12.396;2023-02-12T01:48:39;102101.81;;;9.92;100.00
54850;BME280;47660;51.334;12.396;2023-02-12T01:51:09;102104.63;;;9.87;100.00
54850;BME280;47660;51.334;12.396;2023-02-12T01:53:40;102099.16;;;9.92;100.00
54850;BME280;47660;51.334;12.396;2023-02-12T01:56:07;102108.53;;;10.31;100.00
54850;BME280;47660;51.334;12.396;2023-02-12T01:58:37;102105.91;;;10.02;100.00
54850;BME280;47660;51.334;12.396;2023-02-12T02:01:09;102100.91;;;10.20;100.00
54850;BME280;47660;51.334;12.396;2023-02-12T02:03:37;102105.09;;;9.73;100.00
54850;BME280;47660;51.334;12.396;2023-02-12T02:06:27;102103.31;;;10.01;100.00
54850;BME280;47660;51.334;12.396;2023-02-12T02:09:02;102110.47;;;10.25;100.00
54850;BME280;47660;51.334;12.396;2023-02-12T02:11:28;102100.16;;;9.89;100.00
54850;BME280;47660;51.334;12.396;2023-02-12T02:14:12;102096.56;;;10.17;100.00
54850;BME280;47660;51.334;12.396;2023-02-12T02:28:56;102094.53;;;10.25;100.00
54850;BME280;47660;51.334;12.396;2023-02-12T02:39:24;102098.53;;;10.37;100.00
54850;BME280;47660;51.334;12.396;2023-02-12T02:42:33;102098.09;;;10.24;100.00
54850;BME280;47660;51.334;12.396;2023-02-12T02:47:40;102096.22;;;10.28;100.00
54850;BME280;47660;51.334;12.396;2023-02-12T02:50:18;102098.53;;;10.64;100.00
54850;BME280;47660;51.334;12.396;2023-02-12T02:52:58;102103.16;;;10.32;100.00
54850;BME280;47660;51.334;12.396;2023-02-12T02:55:30;102099.38;;;10.65;100.00
54850;BME280;47660;51.334;12.396;2023-02-12T02:58:51;102092.00;;;10.48;100.00
54850;BME280;47660;51.334;12.396;2023-02-12T03:01:19;102099.53;;;10.35;100.00
54850;BME280;47660;51.334;12.396;2023-02-12T03:06:43;102100.31;;;10.64;100.00
54850;BME280;47660;51.334;12.396;2023-02-12T03:10:09;102102.94;;;10.38;100.00
54850;BME280;47660;51.334;12.396;2023-02-12T03:12:24;102115.38;;;10.38;100.00
54850;BME280;47660;51.334;12.396;2023-02-12T03:14:57;102109.06;;;10.42;100.00
54850;BME280;47660;51.334;12.396;2023-02-12T03:17:30;102123.28;;;10.41;100.00
54850;BME280;47660;51.334;12.396;2023-02-12T03:20:11;102115.34;;;10.65;100.00
54850;BME280;47660;51.334;12.396;2023-02-12T03:22:45;102123.34;;;10.38;100.00
54850;BME280;47660;51.334;12.396;2023-02-12T03:25:20;102124.72;;;10.50;100.00
54850;BME280;47660;51.334;12.396;2023-02-12T03:39:35;102136.66;;;10.36;100.00
54850;BME280;47660;51.334;12.396;2023-02-12T03:42:11;102142.88;;;10.37;100.00
54850;BME280;47660;51.334;12.396;2023-02-12T03:52:56;102151.75;;;10.36;100.00
54850;BME280;47660;51.334;12.396;2023-02-12T03:55:22;102152.66;;;10.63;100.00
54850;BME280;47660;51.334;12.396;2023-02-12T03:57:54;102158.25;;;10.55;100.00
54850;BME280;47660;51.334;12.396;2023-02-12T04:00:24;102154.81;;;9.96;100.00
54850;BME280;47660;51.334;12.396;2023-02-12T04:02:50;102159.22;;;9.98;100.00
54850;BME280;47660;51.334;12.396;2023-02-12T04:05:22;102159.78;;;10.07;100.00
54850;BME280;47660;51.334;12.396;2023-02-12T04:07:49;102157.56;;;10.49;100.00
54850;BME280;47660;51.334;12.396;2023-02-12T04:10:18;102167.00;;;10.02;100.00
54850;BME280;47660;51.334;12.396;2023-02-12T04:12:53;102163.16;;;9.84;100.00
54850;BME280;47660;51.334;12.396;2023-02-12T04:15:45;102172.28;;;10.04;100.00
54850;BME280;47660;51.334;12.396;2023-02-12T04:18:18;102174.44;;;9.91;100.00
54850;BME280;47660;51.334;12.396;2023-02-12T04:21:01;102177.53;;;10.05;100.00
54850;BME280;47660;51.334;12.396;2023-02-12T04:31:37;102181.28;;;10.00;100.00
54850;BME280;47660;51.334;12.396;2023-02-12T04:37:01;102181.84;;;10.09;100.00
54850;BME280;47660;51.334;12.396;2023-02-12T04:39:30;102185.78;;;10.24;100.00
54850;BME280;47660;51.334;12.396;2023-02-12T04:41:58;102198.34;;;10.48;100.00
54850;BME280;47660;51.334;12.396;2023-02-12T04:44:26;102193.09;;;10.18;100.00
54850;BME280;47660;51.334;12.396;2023-02-12T04:46:55;102189.28;;;10.26;100.00
54850;BME280;47660;51.334;12.396;2023-02-12T04:49:21;102202.81;;;10.19;100.00
54850;BME280;47660;51.334;12.396;2023-02-12T04:51:48;102191.09;;;10.24;100.00
54850;BME280;47660;51.334;12.396;2023-02-12T04:54:15;102189.31;;;10.53;100.00
54850;BME280;47660;51.334;12.396;2023-02-12T04:56:41;102192.91;;;10.24;100.00
54850;BME280;47660;51.334;12.396;2023-02-12T04:59:06;102196.09;;;10.35;100.00
54850;BME280;47660;51.334;12.396;2023-02-12T05:01:33;102197.13;;;10.58;100.00
54850;BME280;47660;51.334;12.396;2023-02-12T05:03:59;102197.03;;;10.33;100.00
54850;BME280;47660;51.334;12.396;2023-02-12T05:06:25;102187.41;;;10.57;100.00
54850;BME280;47660;51.334;12.396;2023-02-12T05:08:53;102198.66;;;10.65;100.00
54850;BME280;47660;51.334;12.396;2023-02-12T05:11:19;102192.56;;;10.35;100.00
54850;BME280;47660;51.334;12.396;2023-02-12T05:13:48;102191.56;;;10.39;100.00
54850;BME280;47660;51.334;12.396;2023-02-12T05:16:16;102193.75;;;10.53;100.00
54850;BME280;47660;51.334;12.396;2023-02-12T05:18:44;102194.56;;;10.28;100.00
54850;BME280;47660;51.334;12.396;2023-02-12T05:21:10;102192.75;;;10.29;100.00
54850;BME280;47660;51.334;12.396;2023-02-12T05:23:39;102191.44;;;10.69;100.00
54850;BME280;47660;51.334;12.396;2023-02-12T05:26:10;102199.78;;;10.58;100.00
54850;BME280;47660;51.334;12.396;2023-02-12T05:28:39;102197.53;;;10.73;100.00
54850;BME280;47660;51.334;12.396;2023-02-12T05:31:17;102199.47;;;10.67;100.00
54850;BME280;47660;51.334;12.396;2023-02-12T05:33:44;102197.25;;;10.80;100.00
54850;BME280;47660;51.334;12.396;2023-02-12T05:36:12;102199.19;;;11.02;100.00
54850;BME280;47660;51.334;12.396;2023-02-12T05:38:42;102199.38;;;10.44;100.00
54850;BME280;47660;51.334;12.396;2023-02-12T05:41:13;102192.34;;;10.68;100.00
54850;BME280;47660;51.334;12.396;2023-02-12T05:43:39;102196.66;;;10.72;100.00
54850;BME280;47660;51.334;12.396;2023-02-12T05:46:05;102200.22;;;10.98;100.00
54850;BME280;47660;51.334;12.396;2023-02-12T05:48:31;102197.22;;;10.82;100.00
54850;BME280;47660;51.334;12.396;2023-02-12T05:51:15;102201.56;;;10.84;100.00
54850;BME280;47660;51.334;12.396;2023-02-12T05:53:41;102205.94;;;10.60;100.00
54850;BME280;47660;51.334;12.396;2023-02-12T05:56:22;102209.06;;;10.16;100.00
54850;BME280;47660;51.334;12.396;2023-02-12T05:58:58;102208.16;;;10.46;100.00
54850;BME280;47660;51.334;12.396;2023-02-12T06:03:54;102206.94;;;10.56;100.00
54850;BME280;47660;51.334;12.396;2023-02-12T06:06:22;102216.56;;;10.32;100.00
54850;BME280;47660;51.334;12.396;2023-02-12T06:08:49;102211.63;;;10.19;100.00
54850;BME280;47660;51.334;12.396;2023-02-12T06:11:15;102213.25;;;10.25;100.00
54850;BME280;47660;51.334;12.396;2023-02-12T06:13:41;102219.97;;;10.64;100.00
54850;BME280;47660;51.334;12.396;2023-02-12T06:18:46;102215.75;;;10.58;100.00
54850;BME280;47660;51.334;12.396;2023-02-12T06:21:12;102222.59;;;10.65;100.00
54850;BME280;47660;51.334;12.396;2023-02-12T06:23:38;102229.56;;;10.69;100.00
54850;BME280;47660;51.334;12.396;2023-02-12T06:26:04;102234.34;;;10.30;100.00
54850;BME280;47660;51.334;12.396;2023-02-12T06:28:30;102234.16;;;10.64;100.00
54850;BME280;47660;51.334;12.396;2023-02-12T06:30:55;102239.66;;;10.85;100.00
54850;BME280;47660;51.334;12.396;2023-02-12T06:33:21;102240.63;;;10.82;100.00
54850;BME280;47660;51.334;12.396;2023-02-12T06:35:46;102245.41;;;10.73;100.00
54850;BME280;47660;51.334;12.396;2023-02-12T06:38:12;102252.25;;;10.53;100.00
54850;BME280;47660;51.334;12.396;2023-02-12T06:40:40;102244.59;;;10.70;100.00
54850;BME280;47660;51.334;12.396;2023-02-12T06:43:05;102246.59;;;10.89;100.00
54850;BME280;47660;51.334;12.396;2023-02-12T06:45:32;102251.59;;;10.46;100.00
54850;BME280;47660;51.334;12.396;2023-02-12T06:47:57;102256.28;;;10.36;100.00
54850;BME280;47660;51.334;12.396;2023-02-12T06:50:23;102259.69;;;10.42;100.00
54850;BME280;47660;51.334;12.396;2023-02-12T06:52:49;102258.91;;;10.38;100.00
54850;BME280;47660;51.334;12.396;2023-02-12T06:55:14;102263.66;;;10.57;100.00
54850;BME280;47660;51.334;12.396;2023-02-12T06:57:41;102255.88;;;10.50;100.00
54850;BME280;47660;51.334;12.396;2023-02-12T07:00:09;102262.34;;;10.42;100.00
54850;BME280;47660;51.334;12.396;2023-02-12T07:02:38;102257.69;;;10.20;100.00
54850;BME280;47660;51.334;12.396;2023-02-12T07:05:03;102266.22;;;10.31;100.00
54850;BME280;47660;51.334;12.396;2023-02-12T07:07:29;102270.56;;;10.34;100.00
54850;BME280;47660;51.334;12.396;2023-02-12T07:09:54;102270.38;;;10.40;100.00
54850;BME280;47660;51.334;12.396;2023-02-12T07:12:20;102278.22;;;10.45;100.00
54850;BME280;47660;51.334;12.396;2023-02-12T07:14:45;102276.25;;;10.21;100.00
54850;BME280;47660;51.334;12.396;2023-02-12T07:17:11;102285.69;;;10.60;100.00
54850;BME280;47660;51.334;12.396;2023-02-12T07:19:40;102284.69;;;10.64;100.00
54850;BME280;47660;51.334;12.396;2023-02-12T07:22:08;102290.56;;;10.74;100.00
54850;BME280;47660;51.334;12.396;2023-02-12T07:24:33;102287.16;;;10.12;100.00
54850;BME280;47660;51.334;12.396;2023-02-12T07:26:59;102295.72;;;10.52;100.00
54850;BME280;47660;51.334;12.396;2023-02-12T07:29:24;102292.81;;;10.60;100.00
54850;BME280;47660;51.334;12.396;2023-02-12T07:31:50;102293.50;;;10.36;100.00
54850;BME280;47660;51.334;12.396;2023-02-12T07:34:20;102290.81;;;10.66;100.00
54850;BME280;47660;51.334;12.396;2023-02-12T07:36:48;102297.81;;;10.69;100.00
54850;BME280;47660;51.334;12.396;2023-02-12T07:39:17;102304.78;;;10.73;100.00
54850;BME280;47660;51.334;12.396;2023-02-12T07:41:42;102304.75;;;10.75;100.00
54850;BME280;47660;51.334;12.396;2023-02-12T07:44:11;102309.63;;;10.60;100.00
54850;BME280;47660;51.334;12.396;2023-02-12T07:46:40;102305.69;;;10.72;100.00
54850;BME280;47660;51.334;12.396;2023-02-12T07:49:07;102312.66;;;10.48;100.00
54850;BME280;47660;51.334;12.396;2023-02-12T07:51:35;102315.56;;;10.68;100.00
54850;BME280;47660;51.334;12.396;2023-02-12T07:54:01;102316.47;;;10.96;100.00
54850;BME280;47660;51.334;12.396;2023-02-12T07:56:29;102320.66;;;11.03;100.00
54850;BME280;47660;51.334;12.396;2023-02-12T07:59:01;102322.25;;;10.82;100.00
54850;BME280;47660;51.334;12.396;2023-02-12T08:01:37;102328.34;;;10.84;100.00
54850;BME280;47660;51.334;12.396;2023-02-12T08:04:09;102330.16;;;11.10;100.00
54850;BME280;47660;51.334;12.396;2023-02-12T08:06:40;102326.50;;;10.86;100.00
54850;BME280;47660;51.334;12.396;2023-02-12T08:09:08;102331.63;;;10.65;100.00
54850;BME280;47660;51.334;12.396;2023-02-12T08:11:37;102322.81;;;10.63;100.00
54850;BME280;47660;51.334;12.396;2023-02-12T08:14:03;102328.59;;;10.78;100.00
54850;BME280;47660;51.334;12.396;2023-02-12T08:16:30;102325.34;;;10.38;100.00
54850;BME280;47660;51.334;12.396;2023-02-12T08:18:56;102333.47;;;10.33;100.00
54850;BME280;47660;51.334;12.396;2023-02-12T08:21:24;102321.72;;;10.70;100.00
54850;BME280;47660;51.334;12.396;2023-02-12T08:23:54;102328.69;;;10.75;100.00
54850;BME280;47660;51.334;12.396;2023-02-12T08:26:23;102328.31;;;10.85;100.00
54850;BME280;47660;51.334;12.396;2023-02-12T08:29:18;102335.84;;;10.99;100.00
54850;BME280;47660;51.334;12.396;2023-02-12T08:31:49;102340.31;;;10.99;100.00
54850;BME280;47660;51.334;12.396;2023-02-12T08:34:22;102331.72;;;10.89;100.00
54850;BME280;47660;51.334;12.396;2023-02-12T08:36:49;102347.50;;;10.95;100.00
54850;BME280;47660;51.334;12.396;2023-02-12T08:39:16;102350.06;;;10.72;100.00
54850;BME280;47660;51.334;12.396;2023-02-12T08:41:45;102343.09;;;10.67;100.00
54850;BME280;47660;51.334;12.396;2023-02-12T08:44:11;102345.84;;;10.64;100.00
54850;BME280;47660;51.334;12.396;2023-02-12T08:46:39;102351.81;;;10.99;100.00
54850;BME280;47660;51.334;12.396;2023-02-12T08:49:11;102353.66;;;10.40;100.00
54850;BME280;47660;51.334;12.396;2023-02-12T08:51:39;102344.78;;;10.70;100.00
54850;BME280;47660;51.334;12.396;2023-02-12T08:54:09;102347.78;;;10.86;100.00
54850;BME280;47660;51.334;12.396;2023-02-12T08:56:38;102347.63;;;10.64;100.00
54850;BME280;47660;51.334;12.396;2023-02-12T08:59:05;102358.50;;;10.56;100.00
54850;BME280;47660;51.334;12.396;2023-02-12T09:01:33;102353.63;;;10.70;100.00
54850;BME280;47660;51.334;12.396;2023-02-12T09:04:00;102353.50;;;11.02;100.00
54850;BME280;47660;51.334;12.396;2023-02-12T09:06:26;102360.09;;;10.90;100.00
54850;BME280;47660;51.334;12.396;2023-02-12T09:08:52;102354.81;;;11.15;100.00
54850;BME280;47660;51.334;12.396;2023-02-12T09:11:26;102361.53;;;11.00;100.00
54850;BME280;47660;51.334;12.396;2023-02-12T09:13:59;102369.53;;;11.27;100.00
54850;BME280;47660;51.334;12.396;2023-02-12T09:16:30;102367.25;;;11.67;100.00
54850;BME280;47660;51.334;12.396;2023-02-12T09:18:56;102370.34;;;11.03;100.00
54850;BME280;47660;51.334;12.396;2023-02-12T09:21:22;102367.81;;;11.25;100.00
54850;BME280;47660;51.334;12.396;2023-02-12T09:23:48;102359.47;;;11.61;100.00
54850;BME280;47660;51.334;12.396;2023-02-12T09:26:17;102370.91;;;12.14;100.00
54850;BME280;47660;51.334;12.396;2023-02-12T09:28:45;102368.88;;;11.71;100.00
54850;BME280;47660;51.334;12.396;2023-02-12T09:31:16;102371.53;;;11.46;100.00
54850;BME280;47660;51.334;12.396;2023-02-12T09:33:45;102380.47;;;11.70;100.00
54850;BME280;47660;51.334;12.396;2023-02-12T09:36:13;102384.81;;;11.98;100.00
54850;BME280;47660;51.334;12.396;2023-02-12T09:38:39;102390.88;;;11.51;100.00
54850;BME280;47660;51.334;12.396;2023-02-12T09:44:19;102392.13;;;11.92;100.00
54850;BME280;47660;51.334;12.396;2023-02-12T09:46:57;102392.63;;;11.78;100.00
54850;BME280;47660;51.334;12.396;2023-02-12T09:52:16;102398.44;;;11.38;100.00
54850;BME280;47660;51.334;12.396;2023-02-12T09:54:47;102397.34;;;11.44;100.00
54850;BME280;47660;51.334;12.396;2023-02-12T09:57:35;102399.28;;;11.39;100.00
54850;BME280;47660;51.334;12.396;2023-02-12T10:00:10;102398.94;;;11.50;100.00
54850;BME280;47660;51.334;12.396;2023-02-12T10:02:41;102407.97;;;11.46;100.00
54850;BME280;47660;51.334;12.396;2023-02-12T10:05:43;102402.88;;;11.38;100.00
54850;BME280;47660;51.334;12.396;2023-02-12T10:08:28;102405.56;;;11.63;100.00
54850;BME280;47660;51.334;12.396;2023-02-12T10:22:00;102413.53;;;10.54;100.00
54850;BME280;47660;51.334;12.396;2023-02-12T10:27:12;102408.16;;;11.12;100.00
54850;BME280;47660;51.334;12.396;2023-02-12T10:29:44;102415.22;;;11.40;100.00
54850;BME280;47660;51.334;12.396;2023-02-12T10:34:45;102402.56;;;11.98;100.00
54850;BME280;47660;51.334;12.396;2023-02-12T10:37:36;102403.59;;;11.43;100.00
54850;BME280;47660;51.334;12.396;2023-02-12T10:42:42;102408.19;;;11.90;100.00
54850;BME280;47660;51.334;12.396;2023-02-12T10:45:13;102399.88;;;11.49;100.00
54850;BME280;47660;51.334;12.396;2023-02-12T10:47:41;102408.03;;;11.69;100.00
54850;BME280;47660;51.334;12.396;2023-02-12T10:50:19;102399.53;;;12.09;100.00
54850;BME280;47660;51.334;12.396;2023-02-12T10:52:50;102404.38;;;11.97;100.00
54850;BME280;47660;51.334;12.396;2023-02-12T10:55:26;102405.03;;;11.79;100.00
54850;BME280;47660;51.334;12.396;2023-02-12T10:57:55;102396.44;;;11.96;100.00
54850;BME280;47660;51.334;12.396;2023-02-12T11:05:47;102391.75;;;12.28;100.00
54850;BME280;47660;51.334;12.396;2023-02-12T11:08:34;102388.81;;;12.58;100.00
54850;BME280;47660;51.334;12.396;2023-02-12T11:11:16;102392.06;;;12.42;100.00
54850;BME280;47660;51.334;12.396;2023-02-12T11:13:46;102388.88;;;12.09;100.00
54850;BME280;47660;51.334;12.396;2023-02-12T11:16:33;102380.72;;;12.13;100.00
54850;BME280;47660;51.334;12.396;2023-02-12T11:19:04;102377.25;;;12.11;100.00
54850;BME280;47660;51.334;12.396;2023-02-12T11:21:31;102387.84;;;11.62;100.00
54850;BME280;47660;51.334;12.396;2023-02-12T11:26:47;102389.53;;;11.90;100.00
54850;BME280;47660;51.334;12.396;2023-02-12T11:29:22;102387.09;;;12.09;100.00
54850;BME280;47660;51.334;12.396;2023-02-12T11:32:05;102391.84;;;12.01;100.00
54850;BME280;47660;51.334;12.396;2023-02-12T11:34:34;102380.75;;;11.86;100.00
54850;BME280;47660;51.334;12.396;2023-02-12T11:37:00;102383.78;;;11.77;100.00
54850;BME280;47660;51.334;12.396;2023-02-12T11:39:34;102382.34;;;12.63;100.00
54850;BME280;47660;51.334;12.396;2023-02-12T11:42:26;102378.34;;;12.29;100.00
54850;BME280;47660;51.334;12.396;2023-02-12T11:44:59;102381.53;;;12.15;100.00
54850;BME280;47660;51.334;12.396;2023-02-12T11:47:28;102373.19;;;12.71;100.00
54850;BME280;47660;51.334;12.396;2023-02-12T11:50:00;102380.94;;;12.07;100.00
54850;BME280;47660;51.334;12.396;2023-02-12T11:52:32;102378.94;;;12.38;100.00
54850;BME280;47660;51.334;12.396;2023-02-12T11:55:02;102369.75;;;13.12;100.00
54850;BME280;47660;51.334;12.396;2023-02-12T11:57:45;102373.38;;;12.66;100.00
54850;BME280;47660;51.334;12.396;2023-02-12T12:03:00;102366.47;;;13.05;100.00
54850;BME280;47660;51.334;12.396;2023-02-12T12:05:53;102372.06;;;12.76;100.00
54850;BME280;47660;51.334;12.396;2023-02-12T12:11:06;102372.09;;;12.30;100.00
54850;BME280;47660;51.334;12.396;2023-02-12T12:13:43;102373.84;;;12.54;100.00
54850;BME280;47660;51.334;12.396;2023-02-12T12:16:17;102381.78;;;12.55;100.00
54850;BME280;47660;51.334;12.396;2023-02-12T12:19:15;102374.94;;;12.26;100.00
54850;BME280;47660;51.334;12.396;2023-02-12T12:22:15;102381.25;;;11.99;100.00
54850;BME280;47660;51.334;12.396;2023-02-12T12:24:56;102377.94;;;12.16;100.00
54850;BME280;47660;51.334;12.396;2023-02-12T12:27:30;102383.69;;;12.75;100.00
54850;BME280;47660;51.334;12.396;2023-02-12T12:30:24;102384.75;;;12.00;100.00
54850;BME280;47660;51.334;12.396;2023-02-12T12:32:54;102379.94;;;12.10;100.00
54850;BME280;47660;51.334;12.396;2023-02-12T12:35:37;102371.66;;;12.41;100.00
54850;BME280;47660;51.334;12.396;2023-02-12T12:38:35;102365.63;;;12.36;100.00
54850;BME280;47660;51.334;12.396;2023-02-12T12:49:46;102367.84;;;11.50;100.00
54850;BME280;47660;51.334;12.396;2023-02-12T12:55:21;102355.81;;;12.14;100.00
54850;BME280;47660;51.334;12.396;2023-02-12T12:58:13;102349.72;;;12.11;100.00
54850;BME280;47660;51.334;12.396;2023-02-12T13:01:26;102358.63;;;11.61;100.00
54850;BME280;47660;51.334;12.396;2023-02-12T13:07:07;102357.88;;;12.30;100.00
54850;BME280;47660;51.334;12.396;2023-02-12T13:23:59;102349.59;;;11.39;100.00
54850;BME280;47660;51.334;12.396;2023-02-12T13:26:36;102341.84;;;11.57;100.00
54850;BME280;47660;51.334;12.396;2023-02-12T13:29:18;102350.66;;;11.34;100.00
54850;BME280;47660;51.334;12.396;2023-02-12T13:31:54;102351.84;;;11.76;100.00
54850;BME280;47660;51.334;12.396;2023-02-12T13:34:23;102346.03;;;11.89;100.00
54850;BME280;47660;51.334;12.396;2023-02-12T13:36:54;102358.50;;;11.89;100.00
54850;BME280;47660;51.334;12.396;2023-02-12T13:39:39;102348.41;;;12.23;100.00
54850;BME280;47660;51.334;12.396;2023-02-12T13:45:14;102344.78;;;12.00;100.00
54850;BME280;47660;51.334;12.396;2023-02-12T13:48:05;102344.75;;;12.01;100.00
54850;BME280;47660;51.334;12.396;2023-02-12T13:50:44;102343.28;;;11.67;100.00
54850;BME280;47660;51.334;12.396;2023-02-12T14:01:10;102333.16;;;12.02;100.00
54850;BME280;47660;51.334;12.396;2023-02-12T14:03:40;102338.81;;;12.17;100.00
54850;BME280;47660;51.334;12.396;2023-02-12T14:08:38;102332.94;;;12.31;100.00
54850;BME280;47660;51.334;12.396;2023-02-12T14:11:10;102347.00;;;12.12;100.00
54850;BME280;47660;51.334;12.396;2023-02-12T14:13:50;102342.22;;;12.44;100.00
54850;BME280;47660;51.334;12.396;2023-02-12T14:21:56;102341.00;;;12.29;100.00
54850;BME280;47660;51.334;12.396;2023-02-12T14:27:40;102343.88;;;12.25;100.00
54850;BME280;47660;51.334;12.396;2023-02-12T14:37:57;102337.03;;;12.17;100.00
54850;BME280;47660;51.334;12.396;2023-02-12T14:43:33;102343.63;;;12.07;100.00
54850;BME280;47660;51.334;12.396;2023-02-12T14:51:34;102332.00;;;12.32;100.00
54850;BME280;47660;51.334;12.396;2023-02-12T14:54:01;102337.97;;;12.16;100.00
54850;BME280;47660;51.334;12.396;2023-02-12T14:56:34;102340.44;;;12.21;100.00
54850;BME280;47660;51.334;12.396;2023-02-12T14:59:05;102333.94;;;12.28;100.00
54850;BME280;47660;51.334;12.396;2023-02-12T15:01:41;102336.09;;;12.18;100.00
54850;BME280;47660;51.334;12.396;2023-02-12T15:04:15;102346.59;;;11.98;100.00
54850;BME280;47660;51.334;12.396;2023-02-12T15:06:50;102343.41;;;12.13;100.00
54850;BME280;47660;51.334;12.396;2023-02-12T15:09:29;102352.16;;;12.17;100.00
54850;BME280;47660;51.334;12.396;2023-02-12T15:12:14;102343.38;;;12.37;100.00
54850;BME280;47660;51.334;12.396;2023-02-12T15:14:49;102346.81;;;12.17;100.00
54850;BME280;47660;51.334;12.396;2023-02-12T15:17:21;102349.47;;;12.17;100.00
54850;BME280;47660;51.334;12.396;2023-02-12T15:19:59;102337.88;;;12.18;100.00
54850;BME280;47660;51.334;12.396;2023-02-12T15:24:52;102356.16;;;11.80;100.00
54850;BME280;47660;51.334;12.396;2023-02-12T15:27:18;102356.56;;;11.93;100.00
54850;BME280;47660;51.334;12.396;2023-02-12T15:29:49;102347.97;;;12.10;100.00
54850;BME280;47660;51.334;12.396;2023-02-12T15:32:26;102355.34;;;12.03;100.00
54850;BME280;47660;51.334;12.396;2023-02-12T15:34:55;102346.59;;;11.99;100.00
54850;BME280;47660;51.334;12.396;2023-02-12T15:37:24;102358.00;;;12.27;100.00
54850;BME280;47660;51.334;12.396;2023-02-12T15:39:55;102351.09;;;11.97;100.00
54850;BME280;47660;51.334;12.396;2023-02-12T15:42:31;102359.75;;;12.04;100.00